createdAt,value
2023-03-06T10:06:21.112Z,9.72
2023-03-06T10:09:27.276Z,9.73
2023-03-06T10:12:36.156Z,9.73
2023-03-06T10:15:44.934Z,9.73
2023-03-06T10:18:47.635Z,9.73
2023-03-06T10:21:59.543Z,9.73
2023-03-06T10:25:08.382Z,9.74
2023-03-06T10:28:17.338Z,9.74
2023-03-06T10:31:24.169Z,9.73
2023-03-06T10:34:31.626Z,9.75
2023-03-06T10:37:35.370Z,9.74
2023-03-06T10:40:43.902Z,9.73
2023-03-06T10:44:07.866Z,9.73
2023-03-06T10:47:31.586Z,9.73
2023-03-06T10:50:34.432Z,9.72
2023-03-06T10:53:37.854Z,9.73
2023-03-06T10:56:42.831Z,9.73
2023-03-06T10:59:52.902Z,9.75
2023-03-06T11:03:07.995Z,9.72
2023-03-06T11:06:13.775Z,9.73
2023-03-06T11:09:22.628Z,9.74
2023-03-06T11:12:29.145Z,9.73
2023-03-06T11:15:31.997Z,9.73
2023-03-06T11:18:42.010Z,9.74
2023-03-06T11:21:44.733Z,9.74
2023-03-06T11:24:51.422Z,9.74
2023-03-06T11:27:58.424Z,9.75
2023-03-06T11:31:08.390Z,9.75
2023-03-06T11:34:17.466Z,9.72
2023-03-06T11:37:42.750Z,9.74
2023-03-06T11:40:52.579Z,9.74
2023-03-06T11:44:02.165Z,9.74
2023-03-06T11:47:17.493Z,9.75
2023-03-06T11:50:26.803Z,9.74
2023-03-06T11:53:36.053Z,9.75
2023-03-06T11:57:36.342Z,9.75
2023-03-06T12:00:46.366Z,9.73
2023-03-06T12:04:27.212Z,9.74
2023-03-06T12:07:35.139Z,9.74
2023-03-06T12:10:49.066Z,9.74
2023-03-06T12:14:10.428Z,9.74
2023-03-06T12:17:19.777Z,9.75
2023-03-06T12:20:41.063Z,9.75
2023-03-06T12:24:01.217Z,9.74
2023-03-06T12:27:18.250Z,9.75
2023-03-06T12:30:36.446Z,9.74
2023-03-06T12:33:50.029Z,9.75
2023-03-06T12:37:01.992Z,9.76
2023-03-06T12:40:27.250Z,9.76
2023-03-06T12:44:06.402Z,9.76
2023-03-06T12:47:12.345Z,9.76
2023-03-06T12:50:21.593Z,9.75
2023-03-06T12:53:28.595Z,9.76
2023-03-06T12:56:34.154Z,9.75
2023-03-06T12:59:47.178Z,9.75
2023-03-06T13:03:15.671Z,9.76
2023-03-06T13:06:49.852Z,9.75
2023-03-06T13:10:06.778Z,9.75
2023-03-06T13:13:31.702Z,9.73
2023-03-06T13:16:35.623Z,9.75
2023-03-06T13:19:38.312Z,9.74
2023-03-06T13:22:42.401Z,9.74
2023-03-06T13:25:49.799Z,9.75
2023-03-06T13:28:57.661Z,9.74
2023-03-06T13:32:15.641Z,9.75
2023-03-06T13:35:49.928Z,9.75
2023-03-06T13:39:06.965Z,9.75
2023-03-06T13:42:27.877Z,9.75
2023-03-06T13:45:35.392Z,9.74
2023-03-06T13:48:44.867Z,9.72
2023-03-06T13:52:06.450Z,9.74
2023-03-06T13:55:21.906Z,9.72
2023-03-06T13:58:40.852Z,9.72
2023-03-06T14:01:55.634Z,9.72
2023-03-06T14:04:59.812Z,9.71
2023-03-06T14:08:08.874Z,9.71
2023-03-06T14:11:20.192Z,9.72
2023-03-06T14:14:32.980Z,9.71
2023-03-06T14:17:39.253Z,9.71
2023-03-06T14:20:44.446Z,9.71
2023-03-06T14:23:47.220Z,9.73
2023-03-06T14:26:51.639Z,9.72
2023-03-06T14:30:06.188Z,9.73
2023-03-06T14:33:13.391Z,9.73
2023-03-06T14:36:18.208Z,9.74
2023-03-06T14:39:23.517Z,9.73
2023-03-06T14:42:30.340Z,9.73
2023-03-06T14:45:33.017Z,9.74
2023-03-06T14:48:42.562Z,9.75
2023-03-06T14:51:47.729Z,9.77
2023-03-06T14:54:50.808Z,9.76
2023-03-06T14:57:58.044Z,9.75
2023-03-06T15:01:04.579Z,9.74
2023-03-06T15:04:19.507Z,9.74
2023-03-06T15:07:27.811Z,9.74
2023-03-06T15:10:33.054Z,9.73
2023-03-06T15:13:35.903Z,9.74
2023-03-06T15:16:38.422Z,9.75
2023-03-06T15:19:42.381Z,9.75
2023-03-06T15:22:45.287Z,9.74
2023-03-06T15:26:01.531Z,9.75
2023-03-06T15:29:13.774Z,9.74
2023-03-06T15:32:31.259Z,9.74
2023-03-06T15:35:37.897Z,9.74
2023-03-06T15:38:42.657Z,9.74
2023-03-06T15:41:45.651Z,9.74
2023-03-06T15:44:50.763Z,9.74
2023-03-06T15:47:56.117Z,9.78
2023-03-06T15:51:00.001Z,9.79
2023-03-06T15:54:11.967Z,9.77
2023-03-06T15:57:22.112Z,9.76
2023-03-06T16:00:28.289Z,9.76
2023-03-06T16:03:31.081Z,9.76
2023-03-06T16:06:34.932Z,9.75
2023-03-06T16:09:37.413Z,9.76
2023-03-06T16:12:39.866Z,9.76
2023-03-06T16:15:47.401Z,9.75
2023-03-06T16:18:49.939Z,9.76
2023-03-06T16:21:53.711Z,9.74
2023-03-06T16:24:56.013Z,9.73
2023-03-06T16:27:59.682Z,9.73
2023-03-06T16:31:02.452Z,9.75
2023-03-06T16:34:05.147Z,9.74
2023-03-06T16:37:13.710Z,9.75
2023-03-06T16:40:20.616Z,9.75
2023-03-06T16:43:23.026Z,9.75
2023-03-06T16:46:26.675Z,9.75
2023-03-06T16:49:29.564Z,9.76
2023-03-06T16:52:34.536Z,9.76
2023-03-06T16:55:37.253Z,9.75
2023-03-06T16:58:43.305Z,9.76
2023-03-06T17:01:45.820Z,9.76
2023-03-06T17:04:48.369Z,9.77
2023-03-06T17:07:52.184Z,9.76
2023-03-06T17:10:54.647Z,9.77
2023-03-06T17:13:57.119Z,9.79
2023-03-06T17:16:59.731Z,9.78
2023-03-06T17:20:02.732Z,9.77
2023-03-06T17:23:06.715Z,9.77
2023-03-06T17:26:11.798Z,9.77
2023-03-06T17:29:14.508Z,9.76
2023-03-06T17:32:17.103Z,9.77
2023-03-06T17:35:20.148Z,9.76
2023-03-06T17:38:24.097Z,9.75
2023-03-06T17:41:26.796Z,9.75
2023-03-06T17:44:29.307Z,9.75
2023-03-06T17:47:31.824Z,9.75
2023-03-06T17:50:34.359Z,9.74
2023-03-06T17:53:38.612Z,9.75
2023-03-06T17:56:41.121Z,9.76
2023-03-06T17:59:47.683Z,9.75
2023-03-06T18:02:50.334Z,9.74
2023-03-06T18:06:00.212Z,9.75
2023-03-06T18:09:05.123Z,9.75
2023-03-06T18:12:08.059Z,9.75
2023-03-06T18:15:11.282Z,9.75
2023-03-06T18:18:13.814Z,9.74
2023-03-06T18:21:16.972Z,9.75
2023-03-06T18:24:20.927Z,9.75
2023-03-06T18:27:23.432Z,9.75
2023-03-06T18:30:27.123Z,9.76
2023-03-06T18:33:29.688Z,9.75
2023-03-06T18:36:33.985Z,9.76
2023-03-06T18:39:37.886Z,9.77
2023-03-06T18:42:40.681Z,9.76
2023-03-06T18:45:44.343Z,9.75
2023-03-06T18:48:46.782Z,9.74
2023-03-06T18:51:50.637Z,9.75
2023-03-06T18:54:54.683Z,9.76
2023-03-06T18:57:58.096Z,9.76
2023-03-06T19:01:02.299Z,9.76
2023-03-06T19:04:05.768Z,9.77
2023-03-06T19:07:08.329Z,9.77
2023-03-06T19:10:13.828Z,9.76
2023-03-06T19:13:16.583Z,9.77
2023-03-06T19:16:22.340Z,9.76
2023-03-06T19:19:26.250Z,9.75
2023-03-06T19:22:29.073Z,9.75
2023-03-06T19:25:34.154Z,9.75
2023-03-06T19:28:39.376Z,9.76
2023-03-06T19:31:42.580Z,9.74
2023-03-06T19:34:45.235Z,9.75
2023-03-06T19:37:47.666Z,9.75
2023-03-06T19:40:51.755Z,9.75
2023-03-06T19:43:58.288Z,9.74
2023-03-06T19:47:00.712Z,9.74
2023-03-06T19:50:03.587Z,9.74
2023-03-06T19:53:07.360Z,9.74
2023-03-06T19:56:16.501Z,9.74
2023-03-06T19:59:18.992Z,9.74
2023-03-06T20:02:27.212Z,9.75
2023-03-06T20:05:30.304Z,9.77
2023-03-06T20:08:33.994Z,9.76
2023-03-06T20:11:37.897Z,9.76
2023-03-06T20:14:40.329Z,9.75
2023-03-06T20:17:42.964Z,9.77
2023-03-06T20:20:45.704Z,9.77
2023-03-06T20:23:50.991Z,9.77
2023-03-06T20:26:57.615Z,9.77
2023-03-06T20:30:00.333Z,9.77
2023-03-06T20:33:02.754Z,9.77
2023-03-06T20:36:06.051Z,9.77
2023-03-06T20:39:12.176Z,9.77
2023-03-06T20:42:17.609Z,9.78
2023-03-06T20:45:20.191Z,9.77
2023-03-06T20:48:22.639Z,9.76
2023-03-06T20:51:27.872Z,9.77
2023-03-06T20:54:30.416Z,9.76
2023-03-06T20:57:35.188Z,9.77
2023-03-06T21:00:37.614Z,9.77
2023-03-06T21:03:40.025Z,9.77
2023-03-06T21:06:46.524Z,9.77
2023-03-06T21:09:49.760Z,9.76
2023-03-06T21:12:53.675Z,9.76
2023-03-06T21:15:56.120Z,9.76
2023-03-06T21:19:00.579Z,9.76
2023-03-06T21:22:03.175Z,9.75
2023-03-06T21:25:06.212Z,9.75
2023-03-06T21:28:10.049Z,9.76
2023-03-06T21:31:14.419Z,9.77
2023-03-06T21:34:16.949Z,9.75
2023-03-06T21:37:19.526Z,9.76
2023-03-06T21:40:22.372Z,9.75
2023-03-06T21:43:26.204Z,9.74
2023-03-06T21:46:29.538Z,9.75
2023-03-06T21:49:32.329Z,9.75
2023-03-06T21:52:35.190Z,9.75
2023-03-06T21:55:40.383Z,9.76
2023-03-06T21:58:45.182Z,9.75
2023-03-06T22:01:47.729Z,9.75
2023-03-06T22:04:51.175Z,9.76
2023-03-06T22:07:53.717Z,9.75
2023-03-06T22:10:56.396Z,9.74
2023-03-06T22:14:00.323Z,9.74
2023-03-06T22:17:03.020Z,9.76
2023-03-06T22:20:06.626Z,9.74
2023-03-06T22:23:09.390Z,9.74
2023-03-06T22:26:14.465Z,9.75
2023-03-06T22:29:18.231Z,9.76
2023-03-06T22:32:20.768Z,9.75
2023-03-06T22:35:23.680Z,9.75
2023-03-06T22:38:26.143Z,9.76
2023-03-06T22:41:29.316Z,9.75
2023-03-06T22:44:33.212Z,9.74
2023-03-06T22:47:39.513Z,9.75
2023-03-06T22:50:41.983Z,9.75
2023-03-06T22:53:45.071Z,9.76
2023-03-06T22:56:47.748Z,9.76
2023-03-06T22:59:51.700Z,9.76
2023-03-06T23:02:54.298Z,9.75
2023-03-06T23:05:56.859Z,9.75
2023-03-06T23:09:03.759Z,9.76
2023-03-06T23:12:07.610Z,9.75
2023-03-06T23:15:12.492Z,9.73
2023-03-06T23:18:15.629Z,9.75
2023-03-06T23:21:19.680Z,9.74
2023-03-06T23:24:22.300Z,9.75
2023-03-06T23:27:24.864Z,9.74
2023-03-06T23:30:31.411Z,9.73
2023-03-06T23:33:34.035Z,9.74
2023-03-06T23:36:36.598Z,9.74
2023-03-06T23:39:39.259Z,9.74
2023-03-06T23:42:41.797Z,9.73
2023-03-06T23:45:54.210Z,9.75
2023-03-06T23:48:56.824Z,9.74
2023-03-06T23:51:59.599Z,9.74
2023-03-06T23:55:02.132Z,9.74
2023-03-06T23:58:04.689Z,9.74
